Queen Victoria — ZCEF3 — position and weather

sailwx.info

Track history (hours):
 
Tides and Currents Weather Stations Pressure Air Temp Water Temp Dewpoint Dewpoint Depression Visibility Wind Speed Wind Dir Waves Ship Positions

Queen Victoria

Last reported at 2017-Dec-11 16:35 UTC. Time now 2017-Dec-14 15:10 UTC.
Position N 49°46' W 004°20'.

Length 294 m; draft 8 m.

Type: Passenger vessel. MMSI: 310624000.

Date/timePositionNaut miles runAvg speedWind from/ knotsBaromVisibWave heightAir tempDewpointWater temp
2017-Dec-11 16:35N 49°46' W 004°20'112.9
2017-Dec-11 16:29N 49°45' W 004°22'1112.7
2017-Dec-11 15:37N 49°40' W 004°37'50616.0
2017-Dec-10 08:00N 45°24' W 015°24'22016.9 270 / 261004.910.8 13.010.116.0
2017-Dec-09 19:00N 43°18' W 019°36'37417.7 250 / 271021.510.8 17.515.817.0
2017-Dec-08 21:52N 39°23' W 026°03'817.7
2017-Dec-08 21:24N 39°17' W 026°11'717.7
2017-Dec-08 21:00N 39°13' W 026°18'1017.4
2017-Dec-08 20:26N 39°06' W 026°28'717.0
2017-Dec-08 20:00N 39°01' W 026°35'917.0
2017-Dec-08 19:30N 38°55' W 026°43'817.1
2017-Dec-08 19:00N 38°50' W 026°51'816.7
2017-Dec-08 18:30N 38°45' W 026°59'3 6.7
2017-Dec-08 18:00N 38°43' W 027°03'0 0.2
2017-Dec-08 17:28N 38°43' W 027°03'0 0.0
2017-Dec-08 16:55N 38°43' W 027°03'0 0.0
2017-Dec-08 16:28N 38°43' W 027°03'0 0.0
2017-Dec-08 15:55N 38°43' W 027°03'0 0.0
2017-Dec-08 15:28N 38°43' W 027°03'0 0.0
2017-Dec-08 14:55N 38°43' W 027°03'0 0.0
2017-Dec-08 14:28N 38°43' W 027°03'0 0.0
2017-Dec-08 13:58N 38°43' W 027°03'0 0.0
2017-Dec-08 13:22N 38°43' W 027°03'0 0.0
2017-Dec-08 12:58N 38°43' W 027°03'0 0.0
2017-Dec-08 12:25N 38°43' W 027°03'0 0.0
2017-Dec-08 11:58N 38°43' W 027°03'0 0.0
2017-Dec-08 11:28N 38°43' W 027°03'0 0.0
2017-Dec-08 10:49N 38°43' W 027°03'0 0.0
2017-Dec-08 10:28N 38°43' W 027°03'0 0.0
2017-Dec-08 09:58N 38°43' W 027°03'0 0.0
2017-Dec-08 09:28N 38°43' W 027°03'0 0.0
2017-Dec-08 08:58N 38°43' W 027°03'0 0.0
2017-Dec-08 08:30N 38°43' W 027°03'1 2.8
2017-Dec-08 08:00N 38°43' W 027°01'5 9.5
2017-Dec-08 07:30N 38°39' W 026°60'714.5
2017-Dec-08 07:00N 38°34' W 027°06'816.3
2017-Dec-08 06:31N 38°29' W 027°15'816.3
2017-Dec-08 06:00N 38°24' W 027°23'816.5
2017-Dec-08 05:30N 38°20' W 027°32'816.4
2017-Dec-08 05:01N 38°15' W 027°41'816.3
2017-Dec-08 04:30N 38°10' W 027°49'816.4
2017-Dec-08 04:00N 38°06' W 027°58'917.2
2017-Dec-08 03:30N 38°01' W 028°07'917.0
2017-Dec-08 03:00N 37°56' W 028°15'917.2
2017-Dec-08 02:30N 37°51' W 028°24'817.0
2017-Dec-08 02:01N 37°46' W 028°33'917.3
2017-Dec-08 01:31N 37°41' W 028°42'917.7
2017-Dec-08 01:00N 37°36' W 028°51'917.1
2017-Dec-08 00:30N 37°31' W 029°00'817.0
2017-Dec-08 00:00N 37°26' W 029°09'816.7
2017-Dec-07 23:30N 37°21' W 029°18'917.2
2017-Dec-07 23:00N 37°16' W 029°26'917.3
2017-Dec-07 22:31N 37°12' W 029°35'917.1
2017-Dec-07 22:00N 37°07' W 029°44'816.9
2017-Dec-07 21:30N 37°02' W 029°53'1717.1
2017-Dec-07 20:29N 36°52' W 030°11'816.4
2017-Dec-07 20:00N 36°47' W 030°19'62521.6
2017-Dec-07 20:00N 36°48' W 030°12'38516.7 170 / 341017.010.8 19.015.621.0
2017-Dec-06 21:00N 33°06' W 036°36'6220.7 200 / 341007.310.8 21.010.022.0
2017-Dec-06 18:00N 32°30' W 037°36'12515.6 220 / 311006.110.8 22.018.022.0
2017-Dec-06 10:00N 31°18' W 039°36'41317.9 210 / 301008.110.8 22.017.223.0
2017-Dec-05 11:00N 27°24' W 046°06'8421.1 230 / 541016.510.8 24.017.625.0
2017-Dec-05 07:00N 26°36' W 047°24'63817.7 230 / 121015.210.8 23.516.326.0
2017-Dec-03 19:00N 20°30' W 056°54'29017.5 050 / 31014.110.8 26.023.129.0
2017-Dec-03 02:28N 17°46' W 061°07'817.6
2017-Dec-03 02:00N 17°41' W 061°14'917.6
2017-Dec-03 01:31N 17°36' W 061°21'917.6
2017-Dec-03 01:00N 17°31' W 061°29'10707.2
2017-Dec-03 01:00N 17°30' W 061°18'1837.2 060 / 91013.410.8 27.022.629.0
2017-Dec-03 00:31N 17°26' W 061°36'917.7
2017-Dec-03 00:00N 17°21' W 061°44'917.4
2017-Dec-02 23:30N 17°17' W 061°52'815.1
2017-Dec-02 23:00N 17°10' W 061°56'510.1
2017-Dec-02 22:30N 17°07' W 061°52'1 1.5
2017-Dec-02 21:59N 17°07' W 061°51'0 0.0
2017-Dec-02 21:29N 17°07' W 061°51'0 0.0
2017-Dec-02 20:59N 17°07' W 061°51'0 0.0
2017-Dec-02 20:29N 17°07' W 061°51'0 0.0
2017-Dec-02 19:59N 17°07' W 061°51'0 0.0
2017-Dec-02 19:29N 17°07' W 061°51'0 0.0
2017-Dec-02 18:59N 17°07' W 061°51'0 0.0
2017-Dec-02 18:29N 17°07' W 061°51'0 0.0
2017-Dec-02 17:59N 17°07' W 061°51'0 0.0
2017-Dec-02 17:29N 17°07' W 061°51'0 0.0
2017-Dec-02 16:59N 17°07' W 061°51'0 0.0
2017-Dec-02 16:29N 17°07' W 061°51'0 0.0
2017-Dec-02 15:59N 17°07' W 061°51'0 0.0
2017-Dec-02 15:29N 17°07' W 061°51'0 0.0
2017-Dec-02 14:59N 17°07' W 061°51'0 0.0
2017-Dec-02 14:29N 17°07' W 061°51'0 0.0
2017-Dec-02 13:59N 17°07' W 061°51'0 0.0
2017-Dec-02 13:29N 17°07' W 061°51'0 0.0
2017-Dec-02 12:59N 17°07' W 061°51'0 0.4
2017-Dec-02 12:31N 17°07' W 061°51'3 6.9
2017-Dec-02 12:00N 17°09' W 061°54'612.0
2017-Dec-02 11:31N 17°10' W 062°01'714.1
2017-Dec-02 11:00N 17°03' W 062°03'1019.7
2017-Dec-02 10:31N 16°57' W 061°55'1121.5
2017-Dec-02 10:01N 16°52' W 061°46'1121.3
2017-Dec-02 09:31N 16°47' W 061°36'1121.6
2017-Dec-02 09:01N 16°42' W 061°26'1121.5
2017-Dec-02 08:31N 16°36' W 061°16'1121.6
2017-Dec-02 08:00N 16°31' W 061°06'1121.1
2017-Dec-02 07:31N 16°26' W 060°56'1721.4
2017-Dec-02 06:43N 16°10' W 060°50'521.5
2017-Dec-02 06:28N 16°05' W 060°48'  
Track history (hours):
 
Tides and Currents Weather Stations Pressure Air Temp Water Temp Dewpoint Dewpoint Depression Visibility Wind Speed Wind Dir Waves Ship Positions

Queen Victoria

Last reported at 2017-Dec-11 16:35 UTC. Time now 2017-Dec-14 15:10 UTC.
Position N 49°46' W 004°20'.

Length 294 m; draft 8 m.

Type: Passenger vessel. MMSI: 310624000.

Date/timePositionNaut miles runAvg speedWind from/ knotsBaromVisibWave heightAir tempDewpointWater temp
2017-Dec-11 16:35N 49°46' W 004°20'112.9
2017-Dec-11 16:29N 49°45' W 004°22'1112.7
2017-Dec-11 15:37N 49°40' W 004°37'50616.0
2017-Dec-10 08:00N 45°24' W 015°24'22016.9 270 / 261004.910.8 13.010.116.0
2017-Dec-09 19:00N 43°18' W 019°36'37417.7 250 / 271021.510.8 17.515.817.0
2017-Dec-08 21:52N 39°23' W 026°03'817.7
2017-Dec-08 21:24N 39°17' W 026°11'717.7
2017-Dec-08 21:00N 39°13' W 026°18'1017.4
2017-Dec-08 20:26N 39°06' W 026°28'717.0
2017-Dec-08 20:00N 39°01' W 026°35'917.0
2017-Dec-08 19:30N 38°55' W 026°43'817.1
2017-Dec-08 19:00N 38°50' W 026°51'816.7
2017-Dec-08 18:30N 38°45' W 026°59'3 6.7
2017-Dec-08 18:00N 38°43' W 027°03'0 0.2
2017-Dec-08 17:28N 38°43' W 027°03'0 0.0
2017-Dec-08 16:55N 38°43' W 027°03'0 0.0
2017-Dec-08 16:28N 38°43' W 027°03'0 0.0
2017-Dec-08 15:55N 38°43' W 027°03'0 0.0
2017-Dec-08 15:28N 38°43' W 027°03'0 0.0
2017-Dec-08 14:55N 38°43' W 027°03'0 0.0
2017-Dec-08 14:28N 38°43' W 027°03'0 0.0
2017-Dec-08 13:58N 38°43' W 027°03'0 0.0
2017-Dec-08 13:22N 38°43' W 027°03'0 0.0
2017-Dec-08 12:58N 38°43' W 027°03'0 0.0
2017-Dec-08 12:25N 38°43' W 027°03'0 0.0
2017-Dec-08 11:58N 38°43' W 027°03'0 0.0
2017-Dec-08 11:28N 38°43' W 027°03'0 0.0
2017-Dec-08 10:49N 38°43' W 027°03'0 0.0
2017-Dec-08 10:28N 38°43' W 027°03'0 0.0
2017-Dec-08 09:58N 38°43' W 027°03'0 0.0
2017-Dec-08 09:28N 38°43' W 027°03'0 0.0
2017-Dec-08 08:58N 38°43' W 027°03'0 0.0
2017-Dec-08 08:30N 38°43' W 027°03'1 2.8
2017-Dec-08 08:00N 38°43' W 027°01'5 9.5
2017-Dec-08 07:30N 38°39' W 026°60'714.5
2017-Dec-08 07:00N 38°34' W 027°06'816.3
2017-Dec-08 06:31N 38°29' W 027°15'816.3
2017-Dec-08 06:00N 38°24' W 027°23'816.5
2017-Dec-08 05:30N 38°20' W 027°32'816.4
2017-Dec-08 05:01N 38°15' W 027°41'816.3
2017-Dec-08 04:30N 38°10' W 027°49'816.4
2017-Dec-08 04:00N 38°06' W 027°58'917.2
2017-Dec-08 03:30N 38°01' W 028°07'917.0
2017-Dec-08 03:00N 37°56' W 028°15'917.2
2017-Dec-08 02:30N 37°51' W 028°24'817.0
2017-Dec-08 02:01N 37°46' W 028°33'917.3
2017-Dec-08 01:31N 37°41' W 028°42'917.7
2017-Dec-08 01:00N 37°36' W 028°51'917.1
2017-Dec-08 00:30N 37°31' W 029°00'817.0
2017-Dec-08 00:00N 37°26' W 029°09'816.7
2017-Dec-07 23:30N 37°21' W 029°18'917.2
2017-Dec-07 23:00N 37°16' W 029°26'917.3
2017-Dec-07 22:31N 37°12' W 029°35'917.1
2017-Dec-07 22:00N 37°07' W 029°44'816.9
2017-Dec-07 21:30N 37°02' W 029°53'1717.1
2017-Dec-07 20:29N 36°52' W 030°11'816.4
2017-Dec-07 20:00N 36°47' W 030°19'62521.6
2017-Dec-07 20:00N 36°48' W 030°12'38516.7 170 / 341017.010.8 19.015.621.0
2017-Dec-06 21:00N 33°06' W 036°36'6220.7 200 / 341007.310.8 21.010.022.0
2017-Dec-06 18:00N 32°30' W 037°36'12515.6 220 / 311006.110.8 22.018.022.0
2017-Dec-06 10:00N 31°18' W 039°36'41317.9 210 / 301008.110.8 22.017.223.0
2017-Dec-05 11:00N 27°24' W 046°06'8421.1 230 / 541016.510.8 24.017.625.0
2017-Dec-05 07:00N 26°36' W 047°24'63817.7 230 / 121015.210.8 23.516.326.0
2017-Dec-03 19:00N 20°30' W 056°54'29017.5 050 / 31014.110.8 26.023.129.0
2017-Dec-03 02:28N 17°46' W 061°07'817.6
2017-Dec-03 02:00N 17°41' W 061°14'917.6
2017-Dec-03 01:31N 17°36' W 061°21'917.6
2017-Dec-03 01:00N 17°31' W 061°29'10707.2
2017-Dec-03 01:00N 17°30' W 061°18'1837.2 060 / 91013.410.8 27.022.629.0
2017-Dec-03 00:31N 17°26' W 061°36'917.7
2017-Dec-03 00:00N 17°21' W 061°44'917.4
2017-Dec-02 23:30N 17°17' W 061°52'815.1
2017-Dec-02 23:00N 17°10' W 061°56'510.1
2017-Dec-02 22:30N 17°07' W 061°52'1 1.5
2017-Dec-02 21:59N 17°07' W 061°51'0 0.0
2017-Dec-02 21:29N 17°07' W 061°51'0 0.0
2017-Dec-02 20:59N 17°07' W 061°51'0 0.0
2017-Dec-02 20:29N 17°07' W 061°51'0 0.0
2017-Dec-02 19:59N 17°07' W 061°51'0 0.0
2017-Dec-02 19:29N 17°07' W 061°51'0 0.0
2017-Dec-02 18:59N 17°07' W 061°51'0 0.0
2017-Dec-02 18:29N 17°07' W 061°51'0 0.0
2017-Dec-02 17:59N 17°07' W 061°51'0 0.0
2017-Dec-02 17:29N 17°07' W 061°51'0 0.0
2017-Dec-02 16:59N 17°07' W 061°51'0 0.0
2017-Dec-02 16:29N 17°07' W 061°51'0 0.0
2017-Dec-02 15:59N 17°07' W 061°51'0 0.0
2017-Dec-02 15:29N 17°07' W 061°51'0 0.0
2017-Dec-02 14:59N 17°07' W 061°51'0 0.0
2017-Dec-02 14:29N 17°07' W 061°51'0 0.0
2017-Dec-02 13:59N 17°07' W 061°51'0 0.0
2017-Dec-02 13:29N 17°07' W 061°51'0 0.0
2017-Dec-02 12:59N 17°07' W 061°51'0 0.4
2017-Dec-02 12:31N 17°07' W 061°51'3 6.9
2017-Dec-02 12:00N 17°09' W 061°54'612.0
2017-Dec-02 11:31N 17°10' W 062°01'714.1
2017-Dec-02 11:00N 17°03' W 062°03'1019.7
2017-Dec-02 10:31N 16°57' W 061°55'1121.5
2017-Dec-02 10:01N 16°52' W 061°46'1121.3
2017-Dec-02 09:31N 16°47' W 061°36'1121.6
2017-Dec-02 09:01N 16°42' W 061°26'1121.5
2017-Dec-02 08:31N 16°36' W 061°16'1121.6
2017-Dec-02 08:00N 16°31' W 061°06'1121.1
2017-Dec-02 07:31N 16°26' W 060°56'1721.4
2017-Dec-02 06:43N 16°10' W 060°50'521.5
2017-Dec-02 06:28N 16°05' W 060°48'  

Dump ship's entire track history